createdAt,value
2024-05-09T00:02:49.116Z,81.56
2024-05-09T00:05:51.694Z,82.58
2024-05-09T00:08:54.200Z,83.17
2024-05-09T00:11:56.977Z,83.05
2024-05-09T00:14:59.504Z,83.30
2024-05-09T00:18:02.384Z,83.74
2024-05-09T00:21:06.939Z,84.01
2024-05-09T00:24:09.529Z,82.39
2024-05-09T00:27:13.343Z,84.01
2024-05-09T00:30:24.193Z,84.19
2024-05-09T00:33:34.046Z,83.91
2024-05-09T00:36:36.673Z,84.21
2024-05-09T00:39:39.263Z,83.95
2024-05-09T00:42:41.708Z,84.61
2024-05-09T00:45:44.415Z,84.69
2024-05-09T00:48:47.240Z,84.60
2024-05-09T00:51:50.298Z,85.42
2024-05-09T00:54:52.803Z,85.05
2024-05-09T00:57:55.262Z,84.94
2024-05-09T01:00:58.194Z,85.31
2024-05-09T01:04:00.802Z,85.41
2024-05-09T01:07:03.482Z,86.02
2024-05-09T01:10:11.496Z,86.58
2024-05-09T01:13:16.550Z,85.78
2024-05-09T01:16:19.053Z,86.11
2024-05-09T01:19:28.142Z,85.23
2024-05-09T01:22:30.937Z,85.26
2024-05-09T01:25:33.487Z,85.00
2024-05-09T01:28:36.011Z,85.08
2024-05-09T01:31:38.559Z,84.34
2024-05-09T01:34:41.099Z,84.53
2024-05-09T01:37:43.723Z,84.94
2024-05-09T01:40:47.169Z,85.41
2024-05-09T01:43:49.812Z,84.53
2024-05-09T01:46:52.402Z,85.32
2024-05-09T01:49:54.974Z,84.16
2024-05-09T01:52:57.558Z,84.35
2024-05-09T01:56:00.065Z,84.36
2024-05-09T01:59:02.653Z,83.51
2024-05-09T02:02:05.372Z,83.73
2024-05-09T02:05:08.326Z,83.69
2024-05-09T02:08:17.605Z,83.51
2024-05-09T02:11:20.720Z,83.53
2024-05-09T02:14:23.472Z,83.63
2024-05-09T02:17:26.251Z,83.54
2024-05-09T02:20:35.538Z,82.88
2024-05-09T02:23:39.337Z,82.84
2024-05-09T02:26:41.872Z,82.53
2024-05-09T02:29:45.305Z,83.47
2024-05-09T02:32:48.070Z,81.94
2024-05-09T02:35:50.718Z,82.57
2024-05-09T02:38:53.263Z,83.02
2024-05-09T02:41:55.708Z,83.36
2024-05-09T02:44:58.250Z,82.83
2024-05-09T02:48:01.481Z,82.69
2024-05-09T02:51:04.922Z,82.15
2024-05-09T02:54:07.948Z,80.85
2024-05-09T02:57:10.500Z,79.85
2024-05-09T03:00:19.034Z,78.14
2024-05-09T03:03:28.767Z,79.09
2024-05-09T03:06:31.394Z,78.85
2024-05-09T03:09:33.971Z,77.93
2024-05-09T03:12:39.063Z,75.21
2024-05-09T03:15:42.141Z,75.95
2024-05-09T03:18:45.014Z,74.17
2024-05-09T03:21:47.578Z,73.31
2024-05-09T03:24:50.040Z,73.07
2024-05-09T03:27:53.650Z,72.10
2024-05-09T03:30:56.139Z,72.21
2024-05-09T03:33:58.743Z,71.89
2024-05-09T03:37:01.310Z,70.63
2024-05-09T03:40:05.596Z,70.38
2024-05-09T03:43:09.584Z,70.38
2024-05-09T03:46:12.056Z,69.98
2024-05-09T03:49:14.677Z,69.53
2024-05-09T03:52:17.261Z,68.25
2024-05-09T03:55:20.006Z,64.61
2024-05-09T03:58:22.601Z,65.85
2024-05-09T04:01:30.210Z,65.48
2024-05-09T04:04:32.890Z,65.58
2024-05-09T04:07:37.601Z,64.53
2024-05-09T04:10:40.867Z,64.73
2024-05-09T04:13:43.654Z,62.76
2024-05-09T04:16:46.366Z,63.42
2024-05-09T04:19:48.998Z,63.20
2024-05-09T04:22:51.537Z,64.77
2024-05-09T04:25:54.165Z,62.47
2024-05-09T04:28:56.686Z,60.50
2024-05-09T04:31:59.400Z,61.28
2024-05-09T04:35:01.916Z,62.59
2024-05-09T04:38:05.747Z,62.63
2024-05-09T04:41:08.599Z,61.23
2024-05-09T04:44:11.189Z,60.98
2024-05-09T04:47:14.071Z,61.60
2024-05-09T04:50:24.672Z,63.88
2024-05-09T04:53:32.047Z,60.85
2024-05-09T04:56:34.609Z,61.71
2024-05-09T04:59:37.145Z,58.45
2024-05-09T05:02:39.824Z,60.46
2024-05-09T05:05:42.774Z,59.29
2024-05-09T05:08:45.624Z,59.18
2024-05-09T05:11:48.218Z,57.83
2024-05-09T05:14:50.803Z,57.32
2024-05-09T05:17:53.500Z,54.91
2024-05-09T05:20:56.448Z,55.49
2024-05-09T05:23:59.098Z,53.10
2024-05-09T05:27:01.592Z,53.33
2024-05-09T05:30:07.359Z,52.88
2024-05-09T05:33:13.317Z,51.83
2024-05-09T05:36:16.100Z,53.63
2024-05-09T05:39:18.593Z,52.64
2024-05-09T05:42:21.143Z,51.45
2024-05-09T05:45:23.703Z,53.69
2024-05-09T05:48:26.320Z,52.05
2024-05-09T05:51:28.905Z,50.60
2024-05-09T05:54:31.483Z,51.07
2024-05-09T05:57:34.326Z,52.53
2024-05-09T06:00:39.298Z,49.68
2024-05-09T06:03:43.346Z,53.84
2024-05-09T06:06:45.942Z,50.06
2024-05-09T06:09:49.968Z,50.75
2024-05-09T06:12:52.955Z,49.37
2024-05-09T06:15:55.435Z,50.06
2024-05-09T06:18:58.101Z,50.89
2024-05-09T06:22:00.834Z,50.99
2024-05-09T06:25:03.369Z,48.88
2024-05-09T06:28:06.236Z,51.64
2024-05-09T06:31:08.718Z,50.59
2024-05-09T06:34:11.379Z,51.16
2024-05-09T06:37:13.963Z,50.63
2024-05-09T06:40:21.412Z,51.26
2024-05-09T06:43:28.008Z,49.03
2024-05-09T06:46:30.657Z,52.79
2024-05-09T06:49:33.206Z,50.71
2024-05-09T06:52:35.809Z,49.81
2024-05-09T06:55:38.389Z,45.10
2024-05-09T06:58:40.918Z,44.76
2024-05-09T07:01:43.677Z,40.45
2024-05-09T07:04:46.354Z,38.64
2024-05-09T07:07:48.977Z,38.55
2024-05-09T07:10:51.603Z,38.37
2024-05-09T07:13:54.317Z,33.31
2024-05-09T07:16:56.949Z,32.66
2024-05-09T07:20:00.383Z,34.50
2024-05-09T07:23:03.374Z,33.10
2024-05-09T07:26:06.084Z,28.93
2024-05-09T07:29:08.633Z,26.74
2024-05-09T07:32:11.462Z,27.50
2024-05-09T07:35:14.086Z,26.73
2024-05-09T07:38:16.704Z,25.23
2024-05-09T07:41:19.297Z,25.12
2024-05-09T07:44:21.915Z,26.82
2024-05-09T07:48:56.833Z,26.93
2024-05-09T07:53:54.885Z,31.16
2024-05-09T07:56:59.864Z,30.88
2024-05-09T08:00:02.505Z,32.67
2024-05-09T08:03:05.267Z,30.07
2024-05-09T08:06:07.774Z,23.98
2024-05-09T08:09:13.907Z,23.28
2024-05-09T08:12:21.749Z,23.05
2024-05-09T08:15:24.229Z,22.25
2024-05-09T08:18:26.869Z,20.73
2024-05-09T08:21:30.082Z,20.91
2024-05-09T08:24:33.761Z,20.94
2024-05-09T08:27:37.132Z,21.25
2024-05-09T08:30:39.888Z,20.47
2024-05-09T08:33:47.228Z,21.25
2024-05-09T08:36:50.189Z,20.44
2024-05-09T08:39:52.798Z,20.03
2024-05-09T08:42:56.513Z,18.16
2024-05-09T08:45:59.473Z,20.23
2024-05-09T08:49:03.161Z,21.05
2024-05-09T08:52:06.159Z,22.09
2024-05-09T08:55:08.837Z,20.53
2024-05-09T08:58:16.609Z,20.13
2024-05-09T09:01:19.945Z,18.80
2024-05-09T09:04:23.170Z,20.14
2024-05-09T09:07:26.364Z,17.55
2024-05-09T09:10:32.210Z,19.11
2024-05-09T09:13:35.646Z,18.57
2024-05-09T09:16:38.158Z,19.74
2024-05-09T09:19:40.769Z,17.70
2024-05-09T09:22:43.277Z,18.35
2024-05-09T09:25:45.804Z,19.29
2024-05-09T09:28:48.363Z,19.73
2024-05-09T09:32:04.399Z,18.40
2024-05-09T09:35:07.416Z,18.37
2024-05-09T09:38:10.911Z,20.46
2024-05-09T09:41:13.860Z,19.06
2024-05-09T09:44:16.352Z,20.45
2024-05-09T09:47:19.127Z,20.73
2024-05-09T09:50:27.876Z,20.61
2024-05-09T09:53:36.600Z,18.91
2024-05-09T09:56:39.406Z,18.02
2024-05-09T09:59:43.585Z,19.80
2024-05-09T10:02:46.103Z,21.38
2024-05-09T10:05:48.724Z,20.58
2024-05-09T10:08:51.285Z,20.50
2024-05-09T10:11:59.744Z,20.25
2024-05-09T10:15:09.702Z,19.89
2024-05-09T10:18:12.514Z,18.76
2024-05-09T10:21:18.896Z,20.24
2024-05-09T10:24:21.396Z,20.50
2024-05-09T10:27:27.981Z,21.41
2024-05-09T10:30:35.809Z,18.44
2024-05-09T10:33:40.225Z,20.74
2024-05-09T10:36:45.988Z,21.81
2024-05-09T10:39:48.550Z,20.63
2024-05-09T10:42:51.173Z,20.89
2024-05-09T10:45:53.732Z,20.00
2024-05-09T10:48:56.351Z,21.48
2024-05-09T10:51:58.963Z,21.88
2024-05-09T10:55:03.084Z,20.75
2024-05-09T10:58:17.675Z,19.53
2024-05-09T11:01:20.708Z,19.25
2024-05-09T11:04:23.353Z,19.07
2024-05-09T11:07:25.980Z,18.69
2024-05-09T11:10:33.738Z,19.96
2024-05-09T11:13:38.348Z,19.84
2024-05-09T11:16:40.873Z,19.68
2024-05-09T11:19:45.105Z,20.80
2024-05-09T11:22:47.612Z,21.03
2024-05-09T11:25:51.074Z,20.79
2024-05-09T11:28:53.630Z,19.23
2024-05-09T11:31:56.174Z,20.49
2024-05-09T11:34:58.746Z,21.34
2024-05-09T11:38:01.307Z,20.11
2024-05-09T11:41:04.601Z,20.41
2024-05-09T11:44:07.269Z,20.23
2024-05-09T11:47:09.797Z,21.18
2024-05-09T11:51:07.333Z,22.31
2024-05-09T11:54:09.966Z,20.49
2024-05-09T11:57:12.535Z,20.96
2024-05-09T12:01:27.702Z,21.13
2024-05-09T12:04:30.799Z,22.73
2024-05-09T12:07:33.532Z,21.16
2024-05-09T12:10:36.942Z,20.82
2024-05-09T12:13:40.239Z,26.52
2024-05-09T12:17:50.931Z,22.73
2024-05-09T12:20:53.850Z,22.22
2024-05-09T12:23:56.828Z,22.07
2024-05-09T12:26:59.294Z,21.34
2024-05-09T12:30:01.848Z,22.10
2024-05-09T12:33:04.789Z,21.32
2024-05-09T12:36:07.784Z,20.22
2024-05-09T12:39:10.275Z,22.01
2024-05-09T12:42:22.303Z,20.88
2024-05-09T12:45:29.330Z,21.84
2024-05-09T12:48:32.046Z,20.46
2024-05-09T12:51:34.611Z,21.66
2024-05-09T12:54:37.238Z,21.83
2024-05-09T12:57:39.836Z,22.08
2024-05-09T13:00:42.605Z,21.49
2024-05-09T13:03:45.385Z,21.60
2024-05-09T13:06:48.945Z,22.57
2024-05-09T13:09:51.489Z,20.63
2024-05-09T13:15:34.969Z,21.37
2024-05-09T13:20:55.051Z,22.03
2024-05-09T13:25:27.663Z,21.25
2024-05-09T13:28:32.404Z,21.17
2024-05-09T13:31:35.087Z,21.76
2024-05-09T13:34:37.717Z,22.07
2024-05-09T13:37:40.212Z,21.57
2024-05-09T13:40:43.034Z,22.28
2024-05-09T13:43:45.571Z,21.99
2024-05-09T13:46:48.141Z,21.11
2024-05-09T13:49:50.754Z,21.59
2024-05-09T13:52:53.304Z,22.27
2024-05-09T13:55:55.918Z,21.22
2024-05-09T13:58:58.478Z,21.20
2024-05-09T14:02:01.287Z,21.32
2024-05-09T14:05:04.044Z,21.34
2024-05-09T14:08:06.889Z,21.41
2024-05-09T14:11:09.431Z,23.13
2024-05-09T14:14:11.904Z,22.89
2024-05-09T14:17:14.482Z,23.07
2024-05-09T14:20:27.823Z,22.71
2024-05-09T14:23:33.822Z,23.06
2024-05-09T14:27:20.879Z,23.55
2024-05-09T14:30:30.991Z,23.52
2024-05-09T14:33:39.197Z,23.74
2024-05-09T14:36:41.820Z,23.94
2024-05-09T14:39:44.344Z,23.13
2024-05-09T14:42:46.854Z,25.05
2024-05-09T14:45:49.441Z,24.43
2024-05-09T14:48:52.096Z,24.04
2024-05-09T14:51:54.899Z,25.58
2024-05-09T14:58:02.063Z,24.64
2024-05-09T15:01:04.804Z,25.31
2024-05-09T15:04:07.474Z,25.37
2024-05-09T15:07:11.530Z,25.41
2024-05-09T15:10:23.681Z,26.41
2024-05-09T15:13:34.046Z,26.28
2024-05-09T15:16:36.695Z,25.69
2024-05-09T15:19:39.531Z,26.29
2024-05-09T15:22:42.128Z,27.01
2024-05-09T15:25:44.987Z,27.43
2024-05-09T15:28:47.592Z,27.41
2024-05-09T15:31:50.220Z,27.93
2024-05-09T15:34:52.714Z,26.84
2024-05-09T15:37:55.579Z,26.37
2024-05-09T15:40:58.160Z,26.25
2024-05-09T15:44:00.807Z,27.23
2024-05-09T15:47:03.420Z,27.71
2024-05-09T15:50:11.872Z,27.16
2024-05-09T15:53:19.694Z,27.08
2024-05-09T15:56:22.255Z,28.05
2024-05-09T15:59:24.756Z,28.02
2024-05-09T16:02:27.486Z,28.38
2024-05-09T16:05:30.206Z,28.60
2024-05-09T16:08:32.878Z,28.78
2024-05-09T16:11:35.383Z,29.05
2024-05-09T16:14:37.896Z,28.24
2024-05-09T16:17:40.999Z,28.81
2024-05-09T16:20:45.430Z,29.18
2024-05-09T16:23:49.684Z,29.69
2024-05-09T16:26:52.204Z,29.96
2024-05-09T16:29:56.114Z,28.79
2024-05-09T16:33:27.829Z,29.12
2024-05-09T16:36:30.713Z,27.92
2024-05-09T16:39:33.259Z,29.33
2024-05-09T16:42:35.847Z,27.91
2024-05-09T16:45:41.593Z,28.02
2024-05-09T16:48:46.550Z,28.16
2024-05-09T16:52:58.345Z,27.82
2024-05-09T16:56:02.284Z,28.93
2024-05-09T16:59:05.071Z,27.54
2024-05-09T17:02:07.658Z,29.12
2024-05-09T17:05:10.894Z,29.33
2024-05-09T17:08:15.529Z,28.80
2024-05-09T17:11:18.132Z,29.21
2024-05-09T17:14:20.746Z,29.36
2024-05-09T17:17:23.325Z,30.76
2024-05-09T17:20:32.555Z,30.72
2024-05-09T17:23:38.244Z,32.27
2024-05-09T17:26:40.763Z,31.79
2024-05-09T17:29:43.983Z,32.01
2024-05-09T17:32:46.586Z,30.49
2024-05-09T17:35:50.908Z,31.07
2024-05-09T17:38:53.456Z,31.44
2024-05-09T17:41:55.929Z,33.33
2024-05-09T17:44:58.473Z,35.15
2024-05-09T17:48:01.511Z,35.37
2024-05-09T17:51:04.722Z,37.34
2024-05-09T17:54:07.268Z,37.17
2024-05-09T17:57:09.870Z,35.88
2024-05-09T18:00:17.280Z,36.72
2024-05-09T18:03:23.834Z,37.32
2024-05-09T18:06:26.483Z,34.10
2024-05-09T18:09:29.001Z,34.00
2024-05-09T18:12:31.677Z,38.04
2024-05-09T18:15:34.526Z,36.74
2024-05-09T18:18:37.315Z,37.59
2024-05-09T18:21:40.497Z,40.62
2024-05-09T18:24:43.093Z,40.01
2024-05-09T18:27:45.849Z,40.91
2024-05-09T18:30:48.534Z,40.22
2024-05-09T18:33:51.688Z,40.15
2024-05-09T18:36:55.213Z,41.78
2024-05-09T18:39:58.034Z,43.21
2024-05-09T18:43:01.191Z,43.60
2024-05-09T18:46:04.903Z,42.43
2024-05-09T18:49:07.920Z,42.63
2024-05-09T18:52:10.681Z,42.91
2024-05-09T18:55:14.220Z,43.52
2024-05-09T18:58:18.727Z,43.12
2024-05-09T19:01:21.772Z,43.59
2024-05-09T19:04:24.811Z,43.68
2024-05-09T19:07:28.229Z,44.32
2024-05-09T19:10:34.634Z,44.64
2024-05-09T19:13:38.869Z,47.00
2024-05-09T19:16:43.632Z,46.19
2024-05-09T19:19:46.698Z,47.30
2024-05-09T19:22:49.686Z,47.36
2024-05-09T19:25:52.336Z,48.01
2024-05-09T19:28:55.713Z,46.72
2024-05-09T19:31:58.566Z,46.38
2024-05-09T19:35:01.889Z,48.16
2024-05-09T19:38:05.713Z,47.03
2024-05-09T19:41:08.727Z,47.33
2024-05-09T19:44:12.047Z,48.43
2024-05-09T19:47:14.889Z,48.59
2024-05-09T19:51:15.528Z,49.72
2024-05-09T19:54:18.571Z,49.43
2024-05-09T19:57:21.504Z,50.40
2024-05-09T20:00:32.503Z,49.96
2024-05-09T20:03:39.074Z,51.75
2024-05-09T20:06:41.945Z,51.51
2024-05-09T20:09:44.723Z,52.12
2024-05-09T20:12:47.667Z,52.18
2024-05-09T20:15:50.654Z,51.86
2024-05-09T20:18:55.898Z,53.07
2024-05-09T20:22:00.691Z,52.42
2024-05-09T20:25:04.253Z,52.23
2024-05-09T20:28:09.054Z,53.30
2024-05-09T20:31:11.737Z,54.05
2024-05-09T20:34:14.778Z,52.60
2024-05-09T20:37:18.590Z,54.31
2024-05-09T20:40:29.170Z,54.36
2024-05-09T20:43:36.562Z,54.20
2024-05-09T20:46:39.298Z,53.21
2024-05-09T20:49:42.007Z,53.62
2024-05-09T20:52:44.595Z,54.59
2024-05-09T20:55:47.418Z,55.57
2024-05-09T20:58:49.896Z,55.97
2024-05-09T21:01:52.622Z,56.26
2024-05-09T21:04:55.351Z,56.45
2024-05-09T21:07:58.013Z,55.36
2024-05-09T21:11:00.622Z,57.01
2024-05-09T21:14:03.178Z,56.95
2024-05-09T21:17:05.899Z,57.54
2024-05-09T21:20:14.414Z,58.08
2024-05-09T21:23:20.083Z,58.79
2024-05-09T21:26:24.020Z,59.51
2024-05-09T21:29:26.508Z,60.61
2024-05-09T21:32:29.113Z,61.50
2024-05-09T21:35:31.691Z,61.75
2024-05-09T21:38:34.159Z,61.41
2024-05-09T21:41:36.643Z,61.78
2024-05-09T21:44:39.185Z,62.70
2024-05-09T21:47:41.854Z,63.07
2024-05-09T21:50:44.403Z,62.67
2024-05-09T21:53:46.858Z,62.52
2024-05-09T21:56:49.400Z,63.43
2024-05-09T21:59:51.888Z,64.00
2024-05-09T22:02:54.451Z,63.50
2024-05-09T22:05:57.004Z,62.95
2024-05-09T22:08:59.491Z,62.74
2024-05-09T22:12:02.003Z,63.17
2024-05-09T22:15:05.477Z,63.46
2024-05-09T22:18:09.159Z,64.57
2024-05-09T22:21:12.550Z,64.63
2024-05-09T22:24:15.062Z,64.45
2024-05-09T22:27:17.561Z,64.31
2024-05-09T22:30:24.199Z,63.77
2024-05-09T22:33:34.774Z,64.95
2024-05-09T22:36:37.386Z,65.64
2024-05-09T22:39:39.984Z,65.26
2024-05-09T22:42:42.523Z,64.94
2024-05-09T22:45:45.184Z,65.38
2024-05-09T22:48:47.778Z,65.93
2024-05-09T22:51:50.508Z,66.07
2024-05-09T22:54:53.015Z,66.40
2024-05-09T22:57:55.718Z,66.74
2024-05-09T23:00:58.500Z,67.66
2024-05-09T23:04:02.307Z,67.70
2024-05-09T23:07:04.890Z,67.49
2024-05-09T23:10:13.387Z,68.08
2024-05-09T23:13:20.341Z,68.55
2024-05-09T23:16:22.950Z,69.33
2024-05-09T23:19:25.580Z,69.58
2024-05-09T23:22:28.105Z,70.03
2024-05-09T23:25:30.558Z,70.70
2024-05-09T23:28:33.121Z,70.04
2024-05-09T23:31:35.651Z,69.73
2024-05-09T23:34:38.269Z,69.99
2024-05-09T23:37:40.816Z,70.71
2024-05-09T23:40:43.744Z,70.02
2024-05-09T23:43:46.703Z,69.82
2024-05-09T23:46:49.298Z,70.77
2024-05-09T23:49:51.858Z,70.64
2024-05-09T23:52:54.374Z,70.76
2024-05-09T23:55:56.868Z,71.20
2024-05-09T23:58:59.354Z,71.60
